sensor_id;sensor_type;location;lat;lon;timestamp;P1;durP1;ratioP1;P2;durP2;ratioP2
21128;SDS011;10722;51.910;8.352;2024-02-23T00:01:52;9.20;;;1.30;;
21128;SDS011;10722;51.910;8.352;2024-02-23T00:04:37;6.07;;;0.80;;
21128;SDS011;10722;51.910;8.352;2024-02-23T00:07:22;2.40;;;0.53;;
21128;SDS011;10722;51.910;8.352;2024-02-23T00:10:08;2.80;;;0.80;;
21128;SDS011;10722;51.910;8.352;2024-02-23T00:12:53;3.87;;;0.77;;
21128;SDS011;10722;51.910;8.352;2024-02-23T00:15:38;3.13;;;0.73;;
21128;SDS011;10722;51.910;8.352;2024-02-23T00:18:23;3.57;;;0.60;;
21128;SDS011;10722;51.910;8.352;2024-02-23T00:21:09;3.70;;;0.97;;
21128;SDS011;10722;51.910;8.352;2024-02-23T00:23:53;2.40;;;0.70;;
21128;SDS011;10722;51.910;8.352;2024-02-23T00:26:38;3.27;;;1.00;;
21128;SDS011;10722;51.910;8.352;2024-02-23T00:29:23;1.90;;;0.90;;
21128;SDS011;10722;51.910;8.352;2024-02-23T00:32:09;3.77;;;1.40;;
21128;SDS011;10722;51.910;8.352;2024-02-23T00:34:56;3.70;;;1.20;;
21128;SDS011;10722;51.910;8.352;2024-02-23T00:37:42;1.67;;;1.13;;
21128;SDS011;10722;51.910;8.352;2024-02-23T00:40:27;2.80;;;1.00;;
21128;SDS011;10722;51.910;8.352;2024-02-23T00:43:12;3.83;;;1.40;;
21128;SDS011;10722;51.910;8.352;2024-02-23T00:45:57;4.43;;;1.30;;
21128;SDS011;10722;51.910;8.352;2024-02-23T00:48:42;4.40;;;1.17;;
21128;SDS011;10722;51.910;8.352;2024-02-23T00:51:27;1.03;;;0.87;;
21128;SDS011;10722;51.910;8.352;2024-02-23T00:54:11;0.73;;;0.60;;
21128;SDS011;10722;51.910;8.352;2024-02-23T00:56:56;1.80;;;0.90;;
21128;SDS011;10722;51.910;8.352;2024-02-23T00:59:42;5.30;;;1.00;;
21128;SDS011;10722;51.910;8.352;2024-02-23T01:02:27;3.60;;;1.00;;
21128;SDS011;10722;51.910;8.352;2024-02-23T01:05:12;3.80;;;0.83;;
21128;SDS011;10722;51.910;8.352;2024-02-23T01:07:58;1.77;;;0.80;;
21128;SDS011;10722;51.910;8.352;2024-02-23T01:10:44;1.60;;;0.70;;
21128;SDS011;10722;51.910;8.352;2024-02-23T01:13:29;0.77;;;0.60;;
21128;SDS011;10722;51.910;8.352;2024-02-23T01:16:15;1.63;;;0.80;;
21128;SDS011;10722;51.910;8.352;2024-02-23T01:19:00;1.13;;;0.97;;
21128;SDS011;10722;51.910;8.352;2024-02-23T01:21:45;1.10;;;1.00;;
21128;SDS011;10722;51.910;8.352;2024-02-23T01:24:30;1.67;;;1.20;;
21128;SDS011;10722;51.910;8.352;2024-02-23T01:27:15;2.17;;;1.10;;
21128;SDS011;10722;51.910;8.352;2024-02-23T01:30:00;1.47;;;1.20;;
21128;SDS011;10722;51.910;8.352;2024-02-23T01:32:46;2.70;;;1.30;;
21128;SDS011;10722;51.910;8.352;2024-02-23T01:35:31;1.47;;;1.10;;
21128;SDS011;10722;51.910;8.352;2024-02-23T01:38:17;2.67;;;1.20;;
21128;SDS011;10722;51.910;8.352;2024-02-23T01:41:02;1.20;;;1.10;;
21128;SDS011;10722;51.910;8.352;2024-02-23T01:43:47;2.23;;;1.23;;
21128;SDS011;10722;51.910;8.352;2024-02-23T01:46:32;3.60;;;1.33;;
21128;SDS011;10722;51.910;8.352;2024-02-23T01:49:17;2.53;;;1.30;;
21128;SDS011;10722;51.910;8.352;2024-02-23T01:52:03;2.93;;;1.40;;
21128;SDS011;10722;51.910;8.352;2024-02-23T01:54:50;3.93;;;1.33;;
21128;SDS011;10722;51.910;8.352;2024-02-23T01:57:36;3.33;;;1.20;;
21128;SDS011;10722;51.910;8.352;2024-02-23T02:00:34;2.97;;;1.17;;
21128;SDS011;10722;51.910;8.352;2024-02-23T02:03:20;4.17;;;1.00;;
21128;SDS011;10722;51.910;8.352;2024-02-23T02:06:06;1.87;;;1.10;;
21128;SDS011;10722;51.910;8.352;2024-02-23T02:08:53;4.90;;;1.40;;
21128;SDS011;10722;51.910;8.352;2024-02-23T02:11:48;4.50;;;1.70;;
21128;SDS011;10722;51.910;8.352;2024-02-23T02:14:33;5.53;;;1.83;;
21128;SDS011;10722;51.910;8.352;2024-02-23T02:17:18;8.80;;;2.40;;
21128;SDS011;10722;51.910;8.352;2024-02-23T02:20:03;8.10;;;2.33;;
21128;SDS011;10722;51.910;8.352;2024-02-23T02:22:49;6.43;;;2.37;;
21128;SDS011;10722;51.910;8.352;2024-02-23T02:25:34;6.57;;;2.70;;
21128;SDS011;10722;51.910;8.352;2024-02-23T02:28:19;8.10;;;2.27;;
21128;SDS011;10722;51.910;8.352;2024-02-23T02:31:04;7.73;;;2.67;;
21128;SDS011;10722;51.910;8.352;2024-02-23T02:33:49;7.10;;;2.80;;
21128;SDS011;10722;51.910;8.352;2024-02-23T02:36:34;6.07;;;2.60;;
21128;SDS011;10722;51.910;8.352;2024-02-23T02:39:19;9.73;;;3.40;;
21128;SDS011;10722;51.910;8.352;2024-02-23T02:42:04;8.20;;;2.90;;
21128;SDS011;10722;51.910;8.352;2024-02-23T02:44:49;7.17;;;3.10;;
21128;SDS011;10722;51.910;8.352;2024-02-23T02:47:35;8.77;;;3.07;;
21128;SDS011;10722;51.910;8.352;2024-02-23T02:50:20;9.70;;;3.07;;
21128;SDS011;10722;51.910;8.352;2024-02-23T02:53:05;9.17;;;2.87;;
21128;SDS011;10722;51.910;8.352;2024-02-23T02:55:50;8.53;;;2.47;;
21128;SDS011;10722;51.910;8.352;2024-02-23T02:58:35;14.43;;;3.03;;
21128;SDS011;10722;51.910;8.352;2024-02-23T03:01:20;7.93;;;2.20;;
21128;SDS011;10722;51.910;8.352;2024-02-23T03:04:05;8.93;;;2.60;;
21128;SDS011;10722;51.910;8.352;2024-02-23T03:06:51;9.60;;;2.20;;
21128;SDS011;10722;51.910;8.352;2024-02-23T03:09:36;6.53;;;1.90;;
21128;SDS011;10722;51.910;8.352;2024-02-23T03:12:21;9.20;;;2.20;;
21128;SDS011;10722;51.910;8.352;2024-02-23T03:15:06;9.13;;;2.00;;
21128;SDS011;10722;51.910;8.352;2024-02-23T03:17:52;6.40;;;2.00;;
21128;SDS011;10722;51.910;8.352;2024-02-23T03:20:37;7.60;;;2.10;;
21128;SDS011;10722;51.910;8.352;2024-02-23T03:23:22;5.53;;;1.53;;
21128;SDS011;10722;51.910;8.352;2024-02-23T03:26:07;9.43;;;2.00;;
21128;SDS011;10722;51.910;8.352;2024-02-23T03:28:52;7.73;;;1.80;;
21128;SDS011;10722;51.910;8.352;2024-02-23T03:31:38;5.47;;;1.87;;
21128;SDS011;10722;51.910;8.352;2024-02-23T03:34:23;7.90;;;1.90;;
21128;SDS011;10722;51.910;8.352;2024-02-23T03:37:08;9.77;;;1.87;;
21128;SDS011;10722;51.910;8.352;2024-02-23T03:39:53;7.03;;;1.80;;
21128;SDS011;10722;51.910;8.352;2024-02-23T03:42:38;5.83;;;1.60;;
21128;SDS011;10722;51.910;8.352;2024-02-23T03:45:23;7.77;;;1.70;;
21128;SDS011;10722;51.910;8.352;2024-02-23T03:48:07;9.10;;;1.70;;
21128;SDS011;10722;51.910;8.352;2024-02-23T03:50:52;6.30;;;1.90;;
21128;SDS011;10722;51.910;8.352;2024-02-23T03:53:37;6.77;;;1.53;;
21128;SDS011;10722;51.910;8.352;2024-02-23T03:56:22;9.13;;;1.60;;
21128;SDS011;10722;51.910;8.352;2024-02-23T03:59:08;8.30;;;2.00;;
21128;SDS011;10722;51.910;8.352;2024-02-23T04:01:54;4.83;;;1.30;;
21128;SDS011;10722;51.910;8.352;2024-02-23T04:04:39;8.17;;;1.37;;
21128;SDS011;10722;51.910;8.352;2024-02-23T04:07:24;7.00;;;1.30;;
21128;SDS011;10722;51.910;8.352;2024-02-23T04:10:10;9.60;;;1.80;;
21128;SDS011;10722;51.910;8.352;2024-02-23T04:12:55;8.30;;;1.60;;
21128;SDS011;10722;51.910;8.352;2024-02-23T04:15:40;7.30;;;1.53;;
21128;SDS011;10722;51.910;8.352;2024-02-23T04:18:24;7.90;;;1.53;;
21128;SDS011;10722;51.910;8.352;2024-02-23T04:21:09;8.03;;;1.50;;
21128;SDS011;10722;51.910;8.352;2024-02-23T04:23:55;5.00;;;1.20;;
21128;SDS011;10722;51.910;8.352;2024-02-23T04:26:40;9.80;;;1.83;;
21128;SDS011;10722;51.910;8.352;2024-02-23T04:29:25;10.43;;;1.90;;
21128;SDS011;10722;51.910;8.352;2024-02-23T04:32:09;13.00;;;1.80;;
21128;SDS011;10722;51.910;8.352;2024-02-23T04:34:55;8.70;;;1.60;;
21128;SDS011;10722;51.910;8.352;2024-02-23T04:37:43;10.07;;;1.90;;
21128;SDS011;10722;51.910;8.352;2024-02-23T04:40:28;12.87;;;1.80;;
21128;SDS011;10722;51.910;8.352;2024-02-23T04:43:13;6.47;;;1.60;;
21128;SDS011;10722;51.910;8.352;2024-02-23T04:45:58;6.23;;;1.63;;
21128;SDS011;10722;51.910;8.352;2024-02-23T04:48:43;9.00;;;1.63;;
21128;SDS011;10722;51.910;8.352;2024-02-23T04:51:28;6.87;;;1.47;;
21128;SDS011;10722;51.910;8.352;2024-02-23T04:54:13;6.33;;;1.30;;
21128;SDS011;10722;51.910;8.352;2024-02-23T04:56:58;8.67;;;1.87;;
21128;SDS011;10722;51.910;8.352;2024-02-23T04:59:43;6.20;;;1.70;;
21128;SDS011;10722;51.910;8.352;2024-02-23T05:02:28;7.13;;;1.80;;
21128;SDS011;10722;51.910;8.352;2024-02-23T05:05:13;15.70;;;2.00;;
21128;SDS011;10722;51.910;8.352;2024-02-23T05:07:58;8.10;;;1.90;;
21128;SDS011;10722;51.910;8.352;2024-02-23T05:10:43;9.67;;;2.00;;
21128;SDS011;10722;51.910;8.352;2024-02-23T05:13:28;12.43;;;2.40;;
21128;SDS011;10722;51.910;8.352;2024-02-23T05:16:14;9.13;;;2.37;;
21128;SDS011;10722;51.910;8.352;2024-02-23T05:18:59;10.53;;;2.50;;
21128;SDS011;10722;51.910;8.352;2024-02-23T05:21:44;9.53;;;2.30;;
21128;SDS011;10722;51.910;8.352;2024-02-23T05:24:29;9.30;;;2.00;;
21128;SDS011;10722;51.910;8.352;2024-02-23T05:27:14;8.27;;;2.00;;
21128;SDS011;10722;51.910;8.352;2024-02-23T05:29:59;9.83;;;2.60;;
21128;SDS011;10722;51.910;8.352;2024-02-23T05:32:44;10.53;;;2.40;;
21128;SDS011;10722;51.910;8.352;2024-02-23T05:35:29;11.37;;;2.90;;
21128;SDS011;10722;51.910;8.352;2024-02-23T05:38:14;14.00;;;2.70;;
21128;SDS011;10722;51.910;8.352;2024-02-23T05:41:00;11.57;;;2.63;;
21128;SDS011;10722;51.910;8.352;2024-02-23T05:43:45;14.97;;;2.60;;
21128;SDS011;10722;51.910;8.352;2024-02-23T05:46:30;8.97;;;2.10;;
21128;SDS011;10722;51.910;8.352;2024-02-23T05:49:15;8.43;;;2.33;;
21128;SDS011;10722;51.910;8.352;2024-02-23T05:52:00;9.20;;;2.10;;
21128;SDS011;10722;51.910;8.352;2024-02-23T05:54:45;8.63;;;2.33;;
21128;SDS011;10722;51.910;8.352;2024-02-23T05:57:33;11.03;;;2.07;;
21128;SDS011;10722;51.910;8.352;2024-02-23T06:00:18;10.27;;;1.87;;
21128;SDS011;10722;51.910;8.352;2024-02-23T06:03:03;11.50;;;2.30;;
21128;SDS011;10722;51.910;8.352;2024-02-23T06:05:49;9.63;;;1.90;;
21128;SDS011;10722;51.910;8.352;2024-02-23T06:08:35;10.00;;;2.00;;
21128;SDS011;10722;51.910;8.352;2024-02-23T06:11:20;7.03;;;1.80;;
21128;SDS011;10722;51.910;8.352;2024-02-23T06:14:05;9.27;;;2.17;;
21128;SDS011;10722;51.910;8.352;2024-02-23T06:16:51;11.67;;;2.10;;
21128;SDS011;10722;51.910;8.352;2024-02-23T06:19:36;9.67;;;1.93;;
21128;SDS011;10722;51.910;8.352;2024-02-23T06:22:21;11.10;;;2.07;;
21128;SDS011;10722;51.910;8.352;2024-02-23T06:25:06;4.90;;;1.50;;
21128;SDS011;10722;51.910;8.352;2024-02-23T06:27:51;7.30;;;1.63;;
21128;SDS011;10722;51.910;8.352;2024-02-23T06:30:36;9.63;;;1.87;;
21128;SDS011;10722;51.910;8.352;2024-02-23T06:33:22;11.60;;;1.90;;
21128;SDS011;10722;51.910;8.352;2024-02-23T06:36:07;8.07;;;1.80;;
21128;SDS011;10722;51.910;8.352;2024-02-23T06:38:52;12.33;;;2.00;;
21128;SDS011;10722;51.910;8.352;2024-02-23T06:41:38;9.97;;;1.77;;
21128;SDS011;10722;51.910;8.352;2024-02-23T06:44:23;10.17;;;2.00;;
21128;SDS011;10722;51.910;8.352;2024-02-23T06:47:08;9.83;;;1.90;;
21128;SDS011;10722;51.910;8.352;2024-02-23T06:49:53;9.50;;;1.70;;
21128;SDS011;10722;51.910;8.352;2024-02-23T06:52:38;13.30;;;1.90;;
21128;SDS011;10722;51.910;8.352;2024-02-23T06:55:23;7.53;;;1.40;;
21128;SDS011;10722;51.910;8.352;2024-02-23T06:58:08;8.10;;;1.90;;
21128;SDS011;10722;51.910;8.352;2024-02-23T07:00:53;11.00;;;1.43;;
21128;SDS011;10722;51.910;8.352;2024-02-23T07:03:38;10.30;;;1.53;;
21128;SDS011;10722;51.910;8.352;2024-02-23T07:06:24;11.77;;;1.80;;
21128;SDS011;10722;51.910;8.352;2024-02-23T07:09:09;8.07;;;1.43;;
21128;SDS011;10722;51.910;8.352;2024-02-23T07:11:54;8.47;;;1.73;;
21128;SDS011;10722;51.910;8.352;2024-02-23T07:14:39;5.70;;;1.50;;
21128;SDS011;10722;51.910;8.352;2024-02-23T07:17:24;10.70;;;1.97;;
21128;SDS011;10722;51.910;8.352;2024-02-23T07:20:09;11.20;;;1.77;;
21128;SDS011;10722;51.910;8.352;2024-02-23T07:22:55;9.43;;;1.30;;
21128;SDS011;10722;51.910;8.352;2024-02-23T07:25:40;9.73;;;1.60;;
21128;SDS011;10722;51.910;8.352;2024-02-23T07:28:25;8.27;;;1.50;;
21128;SDS011;10722;51.910;8.352;2024-02-23T07:31:10;9.93;;;1.50;;
21128;SDS011;10722;51.910;8.352;2024-02-23T07:33:55;5.17;;;0.97;;
21128;SDS011;10722;51.910;8.352;2024-02-23T07:36:40;11.03;;;1.47;;
21128;SDS011;10722;51.910;8.352;2024-02-23T07:39:25;9.33;;;1.40;;
21128;SDS011;10722;51.910;8.352;2024-02-23T07:42:10;8.73;;;1.40;;
21128;SDS011;10722;51.910;8.352;2024-02-23T07:44:56;7.47;;;1.40;;
21128;SDS011;10722;51.910;8.352;2024-02-23T07:47:41;8.03;;;1.40;;
21128;SDS011;10722;51.910;8.352;2024-02-23T07:50:26;10.47;;;1.57;;
21128;SDS011;10722;51.910;8.352;2024-02-23T07:53:11;8.00;;;1.90;;
21128;SDS011;10722;51.910;8.352;2024-02-23T07:55:57;5.77;;;1.20;;
21128;SDS011;10722;51.910;8.352;2024-02-23T07:58:42;5.67;;;1.27;;
21128;SDS011;10722;51.910;8.352;2024-02-23T08:01:28;7.17;;;1.30;;
21128;SDS011;10722;51.910;8.352;2024-02-23T08:04:13;9.77;;;1.50;;
21128;SDS011;10722;51.910;8.352;2024-02-23T08:06:58;7.07;;;1.60;;
21128;SDS011;10722;51.910;8.352;2024-02-23T08:09:43;12.57;;;1.57;;
21128;SDS011;10722;51.910;8.352;2024-02-23T08:12:29;9.07;;;1.37;;
21128;SDS011;10722;51.910;8.352;2024-02-23T08:15:14;5.83;;;1.33;;
21128;SDS011;10722;51.910;8.352;2024-02-23T08:17:59;6.97;;;1.20;;
21128;SDS011;10722;51.910;8.352;2024-02-23T08:20:44;9.37;;;1.67;;
21128;SDS011;10722;51.910;8.352;2024-02-23T08:23:29;8.63;;;1.60;;
21128;SDS011;10722;51.910;8.352;2024-02-23T08:26:15;8.00;;;1.40;;
21128;SDS011;10722;51.910;8.352;2024-02-23T08:29:00;7.90;;;1.43;;
21128;SDS011;10722;51.910;8.352;2024-02-23T08:31:46;8.17;;;1.40;;
21128;SDS011;10722;51.910;8.352;2024-02-23T08:34:30;13.73;;;2.17;;
21128;SDS011;10722;51.910;8.352;2024-02-23T08:37:16;12.27;;;1.83;;
21128;SDS011;10722;51.910;8.352;2024-02-23T08:40:01;8.43;;;1.77;;
21128;SDS011;10722;51.910;8.352;2024-02-23T08:42:46;7.50;;;1.67;;
21128;SDS011;10722;51.910;8.352;2024-02-23T08:45:31;8.83;;;1.90;;
21128;SDS011;10722;51.910;8.352;2024-02-23T08:48:16;11.17;;;1.50;;
21128;SDS011;10722;51.910;8.352;2024-02-23T08:51:01;9.57;;;1.60;;
21128;SDS011;10722;51.910;8.352;2024-02-23T08:53:47;7.23;;;1.57;;
21128;SDS011;10722;51.910;8.352;2024-02-23T08:56:36;7.00;;;1.30;;
21128;SDS011;10722;51.910;8.352;2024-02-23T08:59:21;10.03;;;1.50;;
21128;SDS011;10722;51.910;8.352;2024-02-23T09:02:07;9.77;;;1.53;;
21128;SDS011;10722;51.910;8.352;2024-02-23T09:04:52;9.93;;;1.57;;
21128;SDS011;10722;51.910;8.352;2024-02-23T09:07:37;9.07;;;1.60;;
21128;SDS011;10722;51.910;8.352;2024-02-23T09:10:22;9.47;;;1.70;;
21128;SDS011;10722;51.910;8.352;2024-02-23T09:13:07;10.67;;;1.17;;
21128;SDS011;10722;51.910;8.352;2024-02-23T09:15:52;8.87;;;1.50;;
21128;SDS011;10722;51.910;8.352;2024-02-23T09:18:37;9.67;;;1.60;;
21128;SDS011;10722;51.910;8.352;2024-02-23T09:21:22;8.13;;;1.50;;
21128;SDS011;10722;51.910;8.352;2024-02-23T09:24:08;7.87;;;1.50;;
21128;SDS011;10722;51.910;8.352;2024-02-23T09:26:52;8.87;;;1.33;;
21128;SDS011;10722;51.910;8.352;2024-02-23T09:29:37;13.87;;;2.03;;
21128;SDS011;10722;51.910;8.352;2024-02-23T09:32:23;10.43;;;1.53;;
21128;SDS011;10722;51.910;8.352;2024-02-23T09:35:08;10.53;;;1.67;;
21128;SDS011;10722;51.910;8.352;2024-02-23T09:37:53;9.37;;;1.33;;
21128;SDS011;10722;51.910;8.352;2024-02-23T09:40:38;6.60;;;1.23;;
21128;SDS011;10722;51.910;8.352;2024-02-23T09:43:23;8.37;;;1.50;;
21128;SDS011;10722;51.910;8.352;2024-02-23T09:46:14;8.70;;;1.47;;
21128;SDS011;10722;51.910;8.352;2024-02-23T09:48:59;7.07;;;1.63;;
21128;SDS011;10722;51.910;8.352;2024-02-23T09:51:47;6.60;;;1.40;;
21128;SDS011;10722;51.910;8.352;2024-02-23T09:54:33;14.60;;;2.97;;
21128;SDS011;10722;51.910;8.352;2024-02-23T09:57:19;9.93;;;1.93;;
21128;SDS011;10722;51.910;8.352;2024-02-23T10:00:05;11.30;;;2.03;;
21128;SDS011;10722;51.910;8.352;2024-02-23T10:02:51;6.57;;;1.27;;
21128;SDS011;10722;51.910;8.352;2024-02-23T10:05:38;12.67;;;2.30;;
21128;SDS011;10722;51.910;8.352;2024-02-23T10:08:27;11.93;;;1.80;;
21128;SDS011;10722;51.910;8.352;2024-02-23T10:11:13;9.33;;;1.60;;
21128;SDS011;10722;51.910;8.352;2024-02-23T10:14:01;13.53;;;1.97;;
21128;SDS011;10722;51.910;8.352;2024-02-23T10:16:46;9.87;;;1.73;;
21128;SDS011;10722;51.910;8.352;2024-02-23T10:19:33;7.47;;;1.50;;
21128;SDS011;10722;51.910;8.352;2024-02-23T10:22:18;10.27;;;2.07;;
21128;SDS011;10722;51.910;8.352;2024-02-23T10:25:03;10.40;;;1.67;;
21128;SDS011;10722;51.910;8.352;2024-02-23T10:27:49;9.47;;;1.30;;
21128;SDS011;10722;51.910;8.352;2024-02-23T10:30:34;9.77;;;1.80;;
21128;SDS011;10722;51.910;8.352;2024-02-23T10:33:22;4.93;;;1.30;;
21128;SDS011;10722;51.910;8.352;2024-02-23T10:36:08;9.70;;;1.90;;
21128;SDS011;10722;51.910;8.352;2024-02-23T10:38:55;6.23;;;1.40;;
21128;SDS011;10722;51.910;8.352;2024-02-23T10:41:56;14.83;;;3.00;;
21128;SDS011;10722;51.910;8.352;2024-02-23T10:44:42;11.10;;;2.00;;
21128;SDS011;10722;51.910;8.352;2024-02-23T10:47:28;17.37;;;3.53;;
21128;SDS011;10722;51.910;8.352;2024-02-23T10:50:15;9.20;;;1.57;;
21128;SDS011;10722;51.910;8.352;2024-02-23T10:53:03;5.40;;;1.00;;
21128;SDS011;10722;51.910;8.352;2024-02-23T10:55:50;10.63;;;1.80;;
21128;SDS011;10722;51.910;8.352;2024-02-23T10:58:40;8.13;;;1.40;;
21128;SDS011;10722;51.910;8.352;2024-02-23T11:01:25;10.17;;;1.77;;
21128;SDS011;10722;51.910;8.352;2024-02-23T11:04:11;7.53;;;1.40;;
21128;SDS011;10722;51.910;8.352;2024-02-23T11:06:56;6.67;;;1.43;;
21128;SDS011;10722;51.910;8.352;2024-02-23T11:09:42;9.47;;;1.40;;
21128;SDS011;10722;51.910;8.352;2024-02-23T11:12:29;11.47;;;2.40;;
21128;SDS011;10722;51.910;8.352;2024-02-23T11:15:27;6.17;;;1.20;;
21128;SDS011;10722;51.910;8.352;2024-02-23T11:21:33;9.43;;;1.50;;
21128;SDS011;10722;51.910;8.352;2024-02-23T11:24:19;10.00;;;1.67;;
21128;SDS011;10722;51.910;8.352;2024-02-23T11:27:04;9.67;;;1.50;;
21128;SDS011;10722;51.910;8.352;2024-02-23T11:29:52;8.57;;;1.40;;
21128;SDS011;10722;51.910;8.352;2024-02-23T11:32:44;5.60;;;1.40;;
21128;SDS011;10722;51.910;8.352;2024-02-23T11:35:31;8.57;;;1.50;;
21128;SDS011;10722;51.910;8.352;2024-02-23T11:38:16;11.43;;;1.60;;
21128;SDS011;10722;51.910;8.352;2024-02-23T11:41:02;7.10;;;1.27;;
21128;SDS011;10722;51.910;8.352;2024-02-23T11:43:47;7.40;;;1.40;;
21128;SDS011;10722;51.910;8.352;2024-02-23T11:46:32;7.23;;;1.40;;
21128;SDS011;10722;51.910;8.352;2024-02-23T11:49:17;10.43;;;1.30;;
21128;SDS011;10722;51.910;8.352;2024-02-23T11:52:03;7.73;;;1.30;;
21128;SDS011;10722;51.910;8.352;2024-02-23T11:54:48;7.87;;;1.30;;
21128;SDS011;10722;51.910;8.352;2024-02-23T11:57:33;5.17;;;1.20;;
21128;SDS011;10722;51.910;8.352;2024-02-23T12:00:31;7.87;;;1.47;;
21128;SDS011;10722;51.910;8.352;2024-02-23T12:03:17;6.63;;;1.23;;
21128;SDS011;10722;51.910;8.352;2024-02-23T12:06:02;7.07;;;1.20;;
21128;SDS011;10722;51.910;8.352;2024-02-23T12:08:48;7.03;;;1.47;;
21128;SDS011;10722;51.910;8.352;2024-02-23T12:11:33;6.03;;;1.07;;
21128;SDS011;10722;51.910;8.352;2024-02-23T12:14:19;5.37;;;1.17;;
21128;SDS011;10722;51.910;8.352;2024-02-23T12:17:04;4.90;;;1.00;;
21128;SDS011;10722;51.910;8.352;2024-02-23T12:19:50;7.37;;;1.10;;
21128;SDS011;10722;51.910;8.352;2024-02-23T12:22:40;4.97;;;1.10;;
21128;SDS011;10722;51.910;8.352;2024-02-23T12:25:25;5.60;;;1.00;;
21128;SDS011;10722;51.910;8.352;2024-02-23T12:28:10;8.70;;;1.30;;
21128;SDS011;10722;51.910;8.352;2024-02-23T12:31:13;8.73;;;1.57;;
21128;SDS011;10722;51.910;8.352;2024-02-23T12:33:58;8.93;;;1.30;;
21128;SDS011;10722;51.910;8.352;2024-02-23T12:36:45;5.67;;;1.03;;
21128;SDS011;10722;51.910;8.352;2024-02-23T12:39:31;9.73;;;1.40;;
21128;SDS011;10722;51.910;8.352;2024-02-23T12:42:16;8.13;;;1.13;;
21128;SDS011;10722;51.910;8.352;2024-02-23T12:45:01;5.60;;;1.00;;
21128;SDS011;10722;51.910;8.352;2024-02-23T12:47:45;7.30;;;1.20;;
21128;SDS011;10722;51.910;8.352;2024-02-23T12:50:31;6.93;;;1.17;;
21128;SDS011;10722;51.910;8.352;2024-02-23T12:53:30;7.17;;;1.27;;
21128;SDS011;10722;51.910;8.352;2024-02-23T12:56:22;4.47;;;1.00;;
21128;SDS011;10722;51.910;8.352;2024-02-23T12:59:07;4.00;;;0.90;;
21128;SDS011;10722;51.910;8.352;2024-02-23T13:01:52;7.47;;;1.40;;
21128;SDS011;10722;51.910;8.352;2024-02-23T13:04:38;5.73;;;1.10;;
21128;SDS011;10722;51.910;8.352;2024-02-23T13:07:23;5.13;;;1.00;;
21128;SDS011;10722;51.910;8.352;2024-02-23T13:10:08;3.53;;;0.70;;
21128;SDS011;10722;51.910;8.352;2024-02-23T13:12:53;2.53;;;0.87;;
21128;SDS011;10722;51.910;8.352;2024-02-23T13:15:38;2.63;;;0.70;;
21128;SDS011;10722;51.910;8.352;2024-02-23T13:18:23;4.23;;;0.77;;
21128;SDS011;10722;51.910;8.352;2024-02-23T13:21:08;8.23;;;1.40;;
21128;SDS011;10722;51.910;8.352;2024-02-23T13:23:54;3.00;;;0.90;;
21128;SDS011;10722;51.910;8.352;2024-02-23T13:26:39;7.43;;;1.17;;
21128;SDS011;10722;51.910;8.352;2024-02-23T13:29:24;8.33;;;1.27;;
21128;SDS011;10722;51.910;8.352;2024-02-23T13:32:09;4.40;;;0.90;;
21128;SDS011;10722;51.910;8.352;2024-02-23T13:34:57;5.07;;;1.07;;
21128;SDS011;10722;51.910;8.352;2024-02-23T13:37:42;9.50;;;1.20;;
21128;SDS011;10722;51.910;8.352;2024-02-23T13:40:27;8.03;;;1.23;;
21128;SDS011;10722;51.910;8.352;2024-02-23T13:43:12;8.07;;;1.20;;
21128;SDS011;10722;51.910;8.352;2024-02-23T13:45:57;8.33;;;1.40;;
21128;SDS011;10722;51.910;8.352;2024-02-23T13:48:42;4.30;;;1.00;;
21128;SDS011;10722;51.910;8.352;2024-02-23T13:51:27;9.27;;;1.90;;
21128;SDS011;10722;51.910;8.352;2024-02-23T13:54:12;8.50;;;1.27;;
21128;SDS011;10722;51.910;8.352;2024-02-23T13:56:57;8.07;;;1.13;;
21128;SDS011;10722;51.910;8.352;2024-02-23T13:59:42;8.60;;;1.50;;
21128;SDS011;10722;51.910;8.352;2024-02-23T14:02:27;8.87;;;1.77;;
21128;SDS011;10722;51.910;8.352;2024-02-23T14:05:13;4.73;;;1.03;;
21128;SDS011;10722;51.910;8.352;2024-02-23T14:07:58;5.80;;;1.10;;
21128;SDS011;10722;51.910;8.352;2024-02-23T14:10:43;5.83;;;1.30;;
21128;SDS011;10722;51.910;8.352;2024-02-23T14:13:28;7.07;;;1.00;;
21128;SDS011;10722;51.910;8.352;2024-02-23T14:16:13;4.17;;;1.07;;
21128;SDS011;10722;51.910;8.352;2024-02-23T14:19:00;3.50;;;0.80;;
21128;SDS011;10722;51.910;8.352;2024-02-23T14:21:45;11.63;;;1.70;;
21128;SDS011;10722;51.910;8.352;2024-02-23T14:24:30;7.27;;;1.13;;
21128;SDS011;10722;51.910;8.352;2024-02-23T14:27:15;5.20;;;1.47;;
21128;SDS011;10722;51.910;8.352;2024-02-23T14:29:59;8.30;;;1.53;;
21128;SDS011;10722;51.910;8.352;2024-02-23T14:32:45;7.73;;;1.57;;
21128;SDS011;10722;51.910;8.352;2024-02-23T14:35:32;6.93;;;1.20;;
21128;SDS011;10722;51.910;8.352;2024-02-23T14:38:17;10.57;;;1.60;;
21128;SDS011;10722;51.910;8.352;2024-02-23T14:41:02;7.77;;;1.90;;
21128;SDS011;10722;51.910;8.352;2024-02-23T14:43:47;8.90;;;1.87;;
21128;SDS011;10722;51.910;8.352;2024-02-23T14:46:32;6.33;;;1.30;;
21128;SDS011;10722;51.910;8.352;2024-02-23T14:49:18;5.70;;;1.50;;
21128;SDS011;10722;51.910;8.352;2024-02-23T14:52:02;8.03;;;1.50;;
21128;SDS011;10722;51.910;8.352;2024-02-23T14:54:48;8.97;;;1.60;;
21128;SDS011;10722;51.910;8.352;2024-02-23T14:57:33;4.70;;;1.33;;
21128;SDS011;10722;51.910;8.352;2024-02-23T15:00:18;8.27;;;1.90;;
21128;SDS011;10722;51.910;8.352;2024-02-23T15:03:03;5.57;;;1.20;;
21128;SDS011;10722;51.910;8.352;2024-02-23T15:05:49;6.90;;;1.40;;
21128;SDS011;10722;51.910;8.352;2024-02-23T15:08:34;8.10;;;1.50;;
21128;SDS011;10722;51.910;8.352;2024-02-23T15:11:20;11.20;;;2.10;;
21128;SDS011;10722;51.910;8.352;2024-02-23T15:14:05;6.37;;;1.83;;
21128;SDS011;10722;51.910;8.352;2024-02-23T15:16:51;8.53;;;1.87;;
21128;SDS011;10722;51.910;8.352;2024-02-23T15:19:35;7.83;;;1.60;;
21128;SDS011;10722;51.910;8.352;2024-02-23T15:22:21;10.50;;;1.67;;
21128;SDS011;10722;51.910;8.352;2024-02-23T15:25:06;5.63;;;1.20;;
21128;SDS011;10722;51.910;8.352;2024-02-23T15:27:52;6.13;;;1.30;;
21128;SDS011;10722;51.910;8.352;2024-02-23T15:30:36;6.47;;;1.70;;
21128;SDS011;10722;51.910;8.352;2024-02-23T15:33:21;7.73;;;1.20;;
21128;SDS011;10722;51.910;8.352;2024-02-23T15:36:07;9.37;;;1.60;;
21128;SDS011;10722;51.910;8.352;2024-02-23T15:38:52;7.33;;;1.77;;
21128;SDS011;10722;51.910;8.352;2024-02-23T15:41:37;8.43;;;1.50;;
21128;SDS011;10722;51.910;8.352;2024-02-23T15:44:22;10.27;;;1.97;;
21128;SDS011;10722;51.910;8.352;2024-02-23T15:47:07;8.80;;;1.70;;
21128;SDS011;10722;51.910;8.352;2024-02-23T15:49:52;9.30;;;1.47;;
21128;SDS011;10722;51.910;8.352;2024-02-23T15:52:57;6.83;;;1.57;;
21128;SDS011;10722;51.910;8.352;2024-02-23T15:55:43;6.63;;;1.40;;
21128;SDS011;10722;51.910;8.352;2024-02-23T15:58:28;9.97;;;1.70;;
21128;SDS011;10722;51.910;8.352;2024-02-23T16:01:13;7.03;;;1.60;;
21128;SDS011;10722;51.910;8.352;2024-02-23T16:03:59;5.40;;;1.40;;
21128;SDS011;10722;51.910;8.352;2024-02-23T16:06:44;8.23;;;1.70;;
21128;SDS011;10722;51.910;8.352;2024-02-23T16:09:29;6.83;;;1.40;;
21128;SDS011;10722;51.910;8.352;2024-02-23T16:12:14;5.13;;;1.10;;
21128;SDS011;10722;51.910;8.352;2024-02-23T16:14:59;6.07;;;1.10;;
21128;SDS011;10722;51.910;8.352;2024-02-23T16:17:44;8.40;;;1.47;;
21128;SDS011;10722;51.910;8.352;2024-02-23T16:20:29;5.63;;;1.33;;
21128;SDS011;10722;51.910;8.352;2024-02-23T16:23:14;6.70;;;1.47;;
21128;SDS011;10722;51.910;8.352;2024-02-23T16:25:59;5.83;;;1.10;;
21128;SDS011;10722;51.910;8.352;2024-02-23T16:28:45;5.57;;;1.60;;
21128;SDS011;10722;51.910;8.352;2024-02-23T16:31:30;6.37;;;1.50;;
21128;SDS011;10722;51.910;8.352;2024-02-23T16:34:16;9.47;;;2.10;;
21128;SDS011;10722;51.910;8.352;2024-02-23T16:37:01;9.17;;;2.13;;
21128;SDS011;10722;51.910;8.352;2024-02-23T16:39:46;6.73;;;1.53;;